sensor_id;sensor_type;location;lat;lon;timestamp;P1;durP1;ratioP1;P2;durP2;ratioP2
34497;SDS011;20744;50.938;7.286;2023-04-03T00:00:10;3.90;;;2.30;;
34497;SDS011;20744;50.938;7.286;2023-04-03T00:02:37;4.72;;;2.40;;
34497;SDS011;20744;50.938;7.286;2023-04-03T00:05:05;7.20;;;2.22;;
34497;SDS011;20744;50.938;7.286;2023-04-03T00:07:33;6.85;;;2.30;;
34497;SDS011;20744;50.938;7.286;2023-04-03T00:10:00;6.72;;;3.00;;
34497;SDS011;20744;50.938;7.286;2023-04-03T00:12:27;4.65;;;2.03;;
34497;SDS011;20744;50.938;7.286;2023-04-03T00:14:54;3.33;;;2.20;;
34497;SDS011;20744;50.938;7.286;2023-04-03T00:17:23;5.30;;;2.40;;
34497;SDS011;20744;50.938;7.286;2023-04-03T00:19:50;5.75;;;2.28;;
34497;SDS011;20744;50.938;7.286;2023-04-03T00:22:17;4.85;;;2.42;;
34497;SDS011;20744;50.938;7.286;2023-04-03T00:24:45;5.60;;;2.65;;
34497;SDS011;20744;50.938;7.286;2023-04-03T00:27:12;5.38;;;2.58;;
34497;SDS011;20744;50.938;7.286;2023-04-03T00:29:40;5.28;;;2.65;;
34497;SDS011;20744;50.938;7.286;2023-04-03T00:32:08;7.60;;;2.90;;
34497;SDS011;20744;50.938;7.286;2023-04-03T00:34:36;8.23;;;2.40;;
34497;SDS011;20744;50.938;7.286;2023-04-03T00:37:03;4.68;;;2.50;;
34497;SDS011;20744;50.938;7.286;2023-04-03T00:39:31;5.00;;;2.40;;
34497;SDS011;20744;50.938;7.286;2023-04-03T00:41:58;5.60;;;2.33;;
34497;SDS011;20744;50.938;7.286;2023-04-03T00:47:08;4.35;;;2.53;;
34497;SDS011;20744;50.938;7.286;2023-04-03T00:49:37;6.68;;;2.65;;
34497;SDS011;20744;50.938;7.286;2023-04-03T00:52:05;8.52;;;3.00;;
34497;SDS011;20744;50.938;7.286;2023-04-03T00:54:34;4.18;;;2.20;;
34497;SDS011;20744;50.938;7.286;2023-04-03T00:57:02;5.70;;;2.13;;
34497;SDS011;20744;50.938;7.286;2023-04-03T00:59:31;6.07;;;2.58;;
34497;SDS011;20744;50.938;7.286;2023-04-03T01:02:00;7.93;;;2.83;;
34497;SDS011;20744;50.938;7.286;2023-04-03T01:04:28;4.82;;;2.75;;
34497;SDS011;20744;50.938;7.286;2023-04-03T01:06:57;4.28;;;2.58;;
34497;SDS011;20744;50.938;7.286;2023-04-03T01:09:26;4.38;;;2.30;;
34497;SDS011;20744;50.938;7.286;2023-04-03T01:11:54;4.93;;;2.50;;
34497;SDS011;20744;50.938;7.286;2023-04-03T01:14:39;7.10;;;2.50;;
34497;SDS011;20744;50.938;7.286;2023-04-03T01:17:20;5.60;;;2.58;;
34497;SDS011;20744;50.938;7.286;2023-04-03T01:19:51;3.85;;;2.40;;
34497;SDS011;20744;50.938;7.286;2023-04-03T01:22:25;6.07;;;2.60;;
34497;SDS011;20744;50.938;7.286;2023-04-03T01:24:53;5.60;;;2.47;;
34497;SDS011;20744;50.938;7.286;2023-04-03T01:27:20;4.53;;;2.78;;
34497;SDS011;20744;50.938;7.286;2023-04-03T01:29:47;5.15;;;2.55;;
34497;SDS011;20744;50.938;7.286;2023-04-03T01:32:16;7.15;;;2.72;;
34497;SDS011;20744;50.938;7.286;2023-04-03T01:34:43;5.03;;;2.28;;
34497;SDS011;20744;50.938;7.286;2023-04-03T01:37:11;7.80;;;2.72;;
34497;SDS011;20744;50.938;7.286;2023-04-03T01:39:38;5.05;;;2.35;;
34497;SDS011;20744;50.938;7.286;2023-04-03T01:42:05;5.15;;;2.45;;
34497;SDS011;20744;50.938;7.286;2023-04-03T01:44:32;6.07;;;2.47;;
34497;SDS011;20744;50.938;7.286;2023-04-03T01:47:00;9.00;;;3.08;;
34497;SDS011;20744;50.938;7.286;2023-04-03T01:49:28;5.00;;;2.75;;
34497;SDS011;20744;50.938;7.286;2023-04-03T01:51:55;4.43;;;2.70;;
34497;SDS011;20744;50.938;7.286;2023-04-03T01:54:23;7.35;;;2.58;;
34497;SDS011;20744;50.938;7.286;2023-04-03T01:56:50;5.45;;;2.65;;
34497;SDS011;20744;50.938;7.286;2023-04-03T01:59:17;9.45;;;2.95;;
34497;SDS011;20744;50.938;7.286;2023-04-03T02:01:45;7.60;;;2.97;;
34497;SDS011;20744;50.938;7.286;2023-04-03T02:04:12;3.90;;;2.53;;
34497;SDS011;20744;50.938;7.286;2023-04-03T02:06:41;7.88;;;2.90;;
34497;SDS011;20744;50.938;7.286;2023-04-03T02:09:08;5.85;;;2.50;;
34497;SDS011;20744;50.938;7.286;2023-04-03T02:11:35;5.97;;;2.70;;
34497;SDS011;20744;50.938;7.286;2023-04-03T02:14:02;5.13;;;2.28;;
34497;SDS011;20744;50.938;7.286;2023-04-03T02:16:30;8.15;;;2.53;;
34497;SDS011;20744;50.938;7.286;2023-04-03T02:18:57;6.22;;;2.97;;
34497;SDS011;20744;50.938;7.286;2023-04-03T02:21:24;6.05;;;2.72;;
34497;SDS011;20744;50.938;7.286;2023-04-03T02:23:53;5.70;;;2.25;;
34497;SDS011;20744;50.938;7.286;2023-04-03T02:26:20;4.93;;;2.60;;
34497;SDS011;20744;50.938;7.286;2023-04-03T02:28:47;8.20;;;2.83;;
34497;SDS011;20744;50.938;7.286;2023-04-03T02:31:15;7.35;;;3.10;;
34497;SDS011;20744;50.938;7.286;2023-04-03T02:33:42;4.95;;;2.65;;
34497;SDS011;20744;50.938;7.286;2023-04-03T02:36:09;5.47;;;2.75;;
34497;SDS011;20744;50.938;7.286;2023-04-03T02:38:36;8.00;;;2.80;;
34497;SDS011;20744;50.938;7.286;2023-04-03T02:41:06;6.95;;;3.00;;
34497;SDS011;20744;50.938;7.286;2023-04-03T02:43:34;6.88;;;2.90;;
34497;SDS011;20744;50.938;7.286;2023-04-03T02:46:01;5.70;;;2.95;;
34497;SDS011;20744;50.938;7.286;2023-04-03T02:48:29;4.90;;;2.75;;
34497;SDS011;20744;50.938;7.286;2023-04-03T02:50:57;5.43;;;2.70;;
34497;SDS011;20744;50.938;7.286;2023-04-03T02:53:24;4.28;;;2.78;;
34497;SDS011;20744;50.938;7.286;2023-04-03T02:55:51;6.15;;;2.83;;
34497;SDS011;20744;50.938;7.286;2023-04-03T02:58:20;4.97;;;2.97;;
34497;SDS011;20744;50.938;7.286;2023-04-03T03:00:47;5.15;;;2.75;;
34497;SDS011;20744;50.938;7.286;2023-04-03T03:03:14;8.30;;;2.83;;
34497;SDS011;20744;50.938;7.286;2023-04-03T03:05:41;5.85;;;2.90;;
34497;SDS011;20744;50.938;7.286;2023-04-03T03:08:09;10.98;;;3.28;;
34497;SDS011;20744;50.938;7.286;2023-04-03T03:10:36;7.13;;;3.25;;
34497;SDS011;20744;50.938;7.286;2023-04-03T03:13:03;7.05;;;2.92;;
34497;SDS011;20744;50.938;7.286;2023-04-03T03:15:32;4.28;;;2.88;;
34497;SDS011;20744;50.938;7.286;2023-04-03T03:17:59;7.35;;;3.33;;
34497;SDS011;20744;50.938;7.286;2023-04-03T03:20:26;6.00;;;2.75;;
34497;SDS011;20744;50.938;7.286;2023-04-03T03:22:53;7.18;;;3.10;;
34497;SDS011;20744;50.938;7.286;2023-04-03T03:25:21;5.93;;;2.95;;
34497;SDS011;20744;50.938;7.286;2023-04-03T03:27:48;8.75;;;3.47;;
34497;SDS011;20744;50.938;7.286;2023-04-03T03:30:15;6.88;;;3.40;;
34497;SDS011;20744;50.938;7.286;2023-04-03T03:32:44;8.57;;;3.75;;
34497;SDS011;20744;50.938;7.286;2023-04-03T03:35:11;6.32;;;3.28;;
34497;SDS011;20744;50.938;7.286;2023-04-03T03:37:38;5.10;;;3.20;;
34497;SDS011;20744;50.938;7.286;2023-04-03T03:40:06;6.43;;;3.00;;
34497;SDS011;20744;50.938;7.286;2023-04-03T03:42:33;7.25;;;3.30;;
34497;SDS011;20744;50.938;7.286;2023-04-03T03:45:01;5.93;;;3.40;;
34497;SDS011;20744;50.938;7.286;2023-04-03T03:47:28;5.65;;;3.38;;
34497;SDS011;20744;50.938;7.286;2023-04-03T03:49:56;8.77;;;3.03;;
34497;SDS011;20744;50.938;7.286;2023-04-03T03:52:24;9.48;;;3.28;;
34497;SDS011;20744;50.938;7.286;2023-04-03T03:54:51;6.18;;;3.33;;
34497;SDS011;20744;50.938;7.286;2023-04-03T03:57:18;8.65;;;3.50;;
34497;SDS011;20744;50.938;7.286;2023-04-03T03:59:45;6.00;;;3.17;;
34497;SDS011;20744;50.938;7.286;2023-04-03T04:02:13;6.22;;;3.80;;
34497;SDS011;20744;50.938;7.286;2023-04-03T04:04:41;6.47;;;3.40;;
34497;SDS011;20744;50.938;7.286;2023-04-03T04:07:10;6.50;;;3.00;;
34497;SDS011;20744;50.938;7.286;2023-04-03T04:09:37;7.63;;;3.10;;
34497;SDS011;20744;50.938;7.286;2023-04-03T04:12:04;5.30;;;3.13;;
34497;SDS011;20744;50.938;7.286;2023-04-03T04:14:32;8.57;;;3.80;;
34497;SDS011;20744;50.938;7.286;2023-04-03T04:16:59;7.88;;;3.30;;
34497;SDS011;20744;50.938;7.286;2023-04-03T04:19:27;6.68;;;3.40;;
34497;SDS011;20744;50.938;7.286;2023-04-03T04:21:54;7.55;;;3.50;;
34497;SDS011;20744;50.938;7.286;2023-04-03T04:24:23;8.85;;;3.58;;
34497;SDS011;20744;50.938;7.286;2023-04-03T04:26:50;6.97;;;3.30;;
34497;SDS011;20744;50.938;7.286;2023-04-03T04:29:17;5.93;;;3.63;;
34497;SDS011;20744;50.938;7.286;2023-04-03T04:31:45;6.07;;;3.45;;
34497;SDS011;20744;50.938;7.286;2023-04-03T04:34:12;8.05;;;3.40;;
34497;SDS011;20744;50.938;7.286;2023-04-03T04:36:39;7.22;;;3.47;;
34497;SDS011;20744;50.938;7.286;2023-04-03T04:39:06;5.97;;;3.42;;
34497;SDS011;20744;50.938;7.286;2023-04-03T04:41:35;9.70;;;3.42;;
34497;SDS011;20744;50.938;7.286;2023-04-03T04:44:02;6.05;;;2.92;;
34497;SDS011;20744;50.938;7.286;2023-04-03T04:46:30;8.88;;;3.30;;
34497;SDS011;20744;50.938;7.286;2023-04-03T04:48:57;7.35;;;3.13;;
34497;SDS011;20744;50.938;7.286;2023-04-03T04:51:24;6.95;;;2.80;;
34497;SDS011;20744;50.938;7.286;2023-04-03T04:53:51;5.88;;;2.90;;
34497;SDS011;20744;50.938;7.286;2023-04-03T04:56:19;4.55;;;2.75;;
34497;SDS011;20744;50.938;7.286;2023-04-03T04:58:47;6.60;;;2.80;;
34497;SDS011;20744;50.938;7.286;2023-04-03T05:01:15;4.60;;;2.80;;
34497;SDS011;20744;50.938;7.286;2023-04-03T05:03:43;4.55;;;2.45;;
34497;SDS011;20744;50.938;7.286;2023-04-03T05:06:11;8.38;;;2.75;;
34497;SDS011;20744;50.938;7.286;2023-04-03T05:08:38;4.88;;;2.78;;
34497;SDS011;20744;50.938;7.286;2023-04-03T05:11:05;8.32;;;2.65;;
34497;SDS011;20744;50.938;7.286;2023-04-03T05:13:35;6.30;;;2.40;;
34497;SDS011;20744;50.938;7.286;2023-04-03T05:16:04;5.38;;;2.63;;
34497;SDS011;20744;50.938;7.286;2023-04-03T05:18:31;4.50;;;2.10;;
34497;SDS011;20744;50.938;7.286;2023-04-03T05:20:58;7.60;;;2.47;;
34497;SDS011;20744;50.938;7.286;2023-04-03T05:23:25;8.30;;;2.50;;
34497;SDS011;20744;50.938;7.286;2023-04-03T05:25:53;6.13;;;2.40;;
34497;SDS011;20744;50.938;7.286;2023-04-03T05:28:20;7.13;;;2.63;;
34497;SDS011;20744;50.938;7.286;2023-04-03T05:30:52;8.07;;;2.70;;
34497;SDS011;20744;50.938;7.286;2023-04-03T05:33:21;9.02;;;3.20;;
34497;SDS011;20744;50.938;7.286;2023-04-03T05:35:49;5.55;;;2.22;;
34497;SDS011;20744;50.938;7.286;2023-04-03T05:38:16;5.10;;;2.42;;
34497;SDS011;20744;50.938;7.286;2023-04-03T05:40:44;6.45;;;2.38;;
34497;SDS011;20744;50.938;7.286;2023-04-03T05:43:11;4.93;;;1.80;;
34497;SDS011;20744;50.938;7.286;2023-04-03T05:45:38;7.82;;;2.63;;
34497;SDS011;20744;50.938;7.286;2023-04-03T05:48:05;6.95;;;2.45;;
34497;SDS011;20744;50.938;7.286;2023-04-03T05:50:34;11.15;;;2.00;;
34497;SDS011;20744;50.938;7.286;2023-04-03T05:53:06;5.40;;;2.30;;
34497;SDS011;20744;50.938;7.286;2023-04-03T05:55:34;6.82;;;2.28;;
34497;SDS011;20744;50.938;7.286;2023-04-03T05:58:01;6.35;;;1.98;;
34497;SDS011;20744;50.938;7.286;2023-04-03T06:00:28;6.57;;;1.83;;
34497;SDS011;20744;50.938;7.286;2023-04-03T06:02:56;7.50;;;2.25;;
34497;SDS011;20744;50.938;7.286;2023-04-03T06:05:23;6.90;;;2.10;;
34497;SDS011;20744;50.938;7.286;2023-04-03T06:07:51;3.00;;;1.80;;
34497;SDS011;20744;50.938;7.286;2023-04-03T06:10:19;8.90;;;2.17;;
34497;SDS011;20744;50.938;7.286;2023-04-03T06:12:46;8.50;;;2.63;;
34497;SDS011;20744;50.938;7.286;2023-04-03T06:15:13;12.45;;;2.58;;
34497;SDS011;20744;50.938;7.286;2023-04-03T06:17:42;4.70;;;2.03;;
34497;SDS011;20744;50.938;7.286;2023-04-03T06:20:10;6.78;;;1.92;;
34497;SDS011;20744;50.938;7.286;2023-04-03T06:22:38;7.47;;;1.92;;
34497;SDS011;20744;50.938;7.286;2023-04-03T06:25:08;8.30;;;2.00;;
34497;SDS011;20744;50.938;7.286;2023-04-03T06:27:36;6.38;;;1.88;;
34497;SDS011;20744;50.938;7.286;2023-04-03T06:30:03;6.03;;;1.95;;
34497;SDS011;20744;50.938;7.286;2023-04-03T06:32:31;4.10;;;1.70;;
34497;SDS011;20744;50.938;7.286;2023-04-03T06:34:58;2.53;;;1.50;;
34497;SDS011;20744;50.938;7.286;2023-04-03T06:37:26;9.20;;;1.65;;
34497;SDS011;20744;50.938;7.286;2023-04-03T06:39:54;5.53;;;1.88;;
34497;SDS011;20744;50.938;7.286;2023-04-03T06:42:22;5.60;;;1.63;;
34497;SDS011;20744;50.938;7.286;2023-04-03T06:44:50;4.95;;;1.88;;
34497;SDS011;20744;50.938;7.286;2023-04-03T06:47:17;6.22;;;1.90;;
34497;SDS011;20744;50.938;7.286;2023-04-03T06:49:44;8.10;;;2.05;;
34497;SDS011;20744;50.938;7.286;2023-04-03T06:52:12;5.00;;;2.05;;
34497;SDS011;20744;50.938;7.286;2023-04-03T06:54:39;11.30;;;2.00;;
34497;SDS011;20744;50.938;7.286;2023-04-03T06:57:06;5.80;;;1.70;;
34497;SDS011;20744;50.938;7.286;2023-04-03T06:59:35;9.95;;;2.20;;
34497;SDS011;20744;50.938;7.286;2023-04-03T07:02:02;12.48;;;1.95;;
34497;SDS011;20744;50.938;7.286;2023-04-03T07:04:30;5.18;;;1.45;;
34497;SDS011;20744;50.938;7.286;2023-04-03T07:06:57;8.52;;;1.90;;
34497;SDS011;20744;50.938;7.286;2023-04-03T07:09:24;3.45;;;1.33;;
34497;SDS011;20744;50.938;7.286;2023-04-03T07:11:51;5.13;;;1.40;;
34497;SDS011;20744;50.938;7.286;2023-04-03T07:14:19;4.20;;;1.20;;
34497;SDS011;20744;50.938;7.286;2023-04-03T07:16:47;8.43;;;1.10;;
34497;SDS011;20744;50.938;7.286;2023-04-03T07:19:15;4.53;;;1.25;;
34497;SDS011;20744;50.938;7.286;2023-04-03T07:21:43;9.68;;;1.38;;
34497;SDS011;20744;50.938;7.286;2023-04-03T07:24:10;4.55;;;1.25;;
34497;SDS011;20744;50.938;7.286;2023-04-03T07:26:38;6.10;;;1.38;;
34497;SDS011;20744;50.938;7.286;2023-04-03T07:29:05;3.88;;;1.20;;
34497;SDS011;20744;50.938;7.286;2023-04-03T07:31:32;5.03;;;1.63;;
34497;SDS011;20744;50.938;7.286;2023-04-03T07:34:01;4.45;;;1.13;;
34497;SDS011;20744;50.938;7.286;2023-04-03T07:36:28;8.30;;;1.65;;
34497;SDS011;20744;50.938;7.286;2023-04-03T07:38:58;9.20;;;1.20;;
34497;SDS011;20744;50.938;7.286;2023-04-03T07:41:25;7.25;;;1.60;;
34497;SDS011;20744;50.938;7.286;2023-04-03T07:43:53;4.65;;;1.13;;
34497;SDS011;20744;50.938;7.286;2023-04-03T07:46:21;5.97;;;1.33;;
34497;SDS011;20744;50.938;7.286;2023-04-03T07:48:48;4.40;;;1.92;;
34497;SDS011;20744;50.938;7.286;2023-04-03T07:51:17;3.55;;;1.23;;
34497;SDS011;20744;50.938;7.286;2023-04-03T07:53:44;12.57;;;1.30;;
34497;SDS011;20744;50.938;7.286;2023-04-03T07:56:12;5.95;;;1.20;;
34497;SDS011;20744;50.938;7.286;2023-04-03T07:58:39;4.63;;;1.30;;
34497;SDS011;20744;50.938;7.286;2023-04-03T08:01:06;4.80;;;1.02;;
34497;SDS011;20744;50.938;7.286;2023-04-03T08:03:33;2.95;;;1.20;;
34497;SDS011;20744;50.938;7.286;2023-04-03T08:06:02;3.58;;;1.10;;
34497;SDS011;20744;50.938;7.286;2023-04-03T08:08:31;6.63;;;1.38;;
34497;SDS011;20744;50.938;7.286;2023-04-03T08:10:59;4.93;;;1.30;;
34497;SDS011;20744;50.938;7.286;2023-04-03T08:13:27;5.15;;;1.20;;
34497;SDS011;20744;50.938;7.286;2023-04-03T08:15:55;5.40;;;1.30;;
34497;SDS011;20744;50.938;7.286;2023-04-03T08:18:24;3.83;;;1.20;;
34497;SDS011;20744;50.938;7.286;2023-04-03T08:20:51;4.63;;;1.00;;
34497;SDS011;20744;50.938;7.286;2023-04-03T08:23:19;4.25;;;1.20;;
34497;SDS011;20744;50.938;7.286;2023-04-03T08:25:48;4.53;;;1.60;;
34497;SDS011;20744;50.938;7.286;2023-04-03T08:28:16;5.65;;;1.50;;
34497;SDS011;20744;50.938;7.286;2023-04-03T08:30:43;8.50;;;1.30;;
34497;SDS011;20744;50.938;7.286;2023-04-03T08:33:11;5.03;;;1.33;;
34497;SDS011;20744;50.938;7.286;2023-04-03T08:35:38;2.97;;;0.95;;
34497;SDS011;20744;50.938;7.286;2023-04-03T08:38:06;8.70;;;1.45;;
34497;SDS011;20744;50.938;7.286;2023-04-03T08:40:33;5.28;;;1.10;;
34497;SDS011;20744;50.938;7.286;2023-04-03T08:43:06;5.18;;;1.23;;
34497;SDS011;20744;50.938;7.286;2023-04-03T08:45:42;7.45;;;1.75;;
34497;SDS011;20744;50.938;7.286;2023-04-03T08:48:12;5.22;;;1.13;;
34497;SDS011;20744;50.938;7.286;2023-04-03T08:50:41;7.90;;;1.60;;
34497;SDS011;20744;50.938;7.286;2023-04-03T08:53:10;4.90;;;1.00;;
34497;SDS011;20744;50.938;7.286;2023-04-03T08:55:40;3.45;;;1.00;;
34497;SDS011;20744;50.938;7.286;2023-04-03T08:58:11;3.35;;;1.10;;
34497;SDS011;20744;50.938;7.286;2023-04-03T09:00:41;3.75;;;0.90;;
34497;SDS011;20744;50.938;7.286;2023-04-03T09:03:12;3.90;;;0.90;;
34497;SDS011;20744;50.938;7.286;2023-04-03T09:05:41;2.67;;;0.90;;
34497;SDS011;20744;50.938;7.286;2023-04-03T09:08:13;2.28;;;0.82;;
34497;SDS011;20744;50.938;7.286;2023-04-03T09:10:41;2.60;;;0.80;;
34497;SDS011;20744;50.938;7.286;2023-04-03T09:13:11;2.30;;;0.80;;
34497;SDS011;20744;50.938;7.286;2023-04-03T09:15:41;3.20;;;1.00;;
34497;SDS011;20744;50.938;7.286;2023-04-03T09:18:12;5.30;;;0.90;;
34497;SDS011;20744;50.938;7.286;2023-04-03T09:20:42;4.20;;;0.82;;
34497;SDS011;20744;50.938;7.286;2023-04-03T09:23:16;3.92;;;1.10;;
34497;SDS011;20744;50.938;7.286;2023-04-03T09:25:45;3.45;;;0.80;;
34497;SDS011;20744;50.938;7.286;2023-04-03T09:28:14;3.53;;;1.00;;
34497;SDS011;20744;50.938;7.286;2023-04-03T09:30:41;3.90;;;0.90;;
34497;SDS011;20744;50.938;7.286;2023-04-03T09:33:08;1.60;;;0.50;;
34497;SDS011;20744;50.938;7.286;2023-04-03T09:35:36;3.95;;;0.80;;
34497;SDS011;20744;50.938;7.286;2023-04-03T09:38:14;2.70;;;0.88;;
34497;SDS011;20744;50.938;7.286;2023-04-03T09:40:42;3.47;;;0.82;;
34497;SDS011;20744;50.938;7.286;2023-04-03T09:48:48;2.53;;;0.80;;
34497;SDS011;20744;50.938;7.286;2023-04-03T09:51:17;2.67;;;0.80;;
34497;SDS011;20744;50.938;7.286;2023-04-03T09:53:44;3.33;;;0.77;;
34497;SDS011;20744;50.938;7.286;2023-04-03T09:56:18;3.03;;;0.60;;
34497;SDS011;20744;50.938;7.286;2023-04-03T09:58:47;2.40;;;0.60;;
34497;SDS011;20744;50.938;7.286;2023-04-03T10:01:22;2.00;;;0.50;;
34497;SDS011;20744;50.938;7.286;2023-04-03T10:04:03;4.15;;;0.65;;
34497;SDS011;20744;50.938;7.286;2023-04-03T10:06:31;1.63;;;0.50;;
34497;SDS011;20744;50.938;7.286;2023-04-03T10:09:01;3.53;;;0.60;;
34497;SDS011;20744;50.938;7.286;2023-04-03T10:11:29;2.65;;;0.60;;
34497;SDS011;20744;50.938;7.286;2023-04-03T10:13:57;2.10;;;0.68;;
34497;SDS011;20744;50.938;7.286;2023-04-03T10:16:26;2.50;;;0.73;;
34497;SDS011;20744;50.938;7.286;2023-04-03T10:18:57;2.30;;;0.63;;
34497;SDS011;20744;50.938;7.286;2023-04-03T10:21:32;3.20;;;0.70;;
34497;SDS011;20744;50.938;7.286;2023-04-03T10:24:02;3.75;;;0.90;;
34497;SDS011;20744;50.938;7.286;2023-04-03T10:26:35;6.22;;;0.90;;
34497;SDS011;20744;50.938;7.286;2023-04-03T10:29:09;2.28;;;0.60;;
34497;SDS011;20744;50.938;7.286;2023-04-03T10:31:43;2.47;;;0.70;;
34497;SDS011;20744;50.938;7.286;2023-04-03T10:34:13;1.33;;;0.57;;
34497;SDS011;20744;50.938;7.286;2023-04-03T10:36:48;2.25;;;0.60;;
34497;SDS011;20744;50.938;7.286;2023-04-03T10:39:20;4.15;;;0.90;;
